Sukkur Weather



Sukkur's Current Weather

Temprature 25o haze

haze

Rain: 0 %

Min Temprature25o
Max Temprature25o
Humidity53
Wind Speed1.49 m/h
Sun Rise06:05:50
Sun Set18:45:55
Current Time: 09-Apr-2020 03:04:11
Lat/Lon: 27.71, 68.86




Sukkur's Geo Location



Sukkur's Weather Forecast

Time Overall Temp Min Temp Max Temp Humidity Wind Speed Rain
09-Apr-2020 (Thu)
05:00:00 scattered clouds 23.990 23.990 26.090 23 1.85 m/h 0 %
08:00:00 clear sky 28.640 28.640 30.220 18 3.14 m/h 0 %
11:00:00 clear sky 35.480 35.480 36.530 12 4.24 m/h 0 %
14:00:00 broken clouds 38.530 38.530 39.060 9 2.66 m/h 0 %
17:00:00 scattered clouds 39.840 39.840 39.840 8 2.51 m/h 0 %
20:00:00 scattered clouds 34.300 34.300 34.300 11 0.65 m/h 0 %
23:00:00 scattered clouds 31.650 31.650 31.650 14 2.3 m/h 0 %
10-Apr-2020 (Fri)
02:00:00 few clouds 29.940 29.940 29.940 16 3.72 m/h 0 %
05:00:00 few clouds 28.190 28.190 28.190 21 3.54 m/h 0 %
08:00:00 broken clouds 31.830 31.830 31.830 19 5.98 m/h 0 %
11:00:00 scattered clouds 37.590 37.590 37.590 12 5.64 m/h 0 %
14:00:00 scattered clouds 39.250 39.250 39.250 9 3.38 m/h 0 %
17:00:00 few clouds 39.030 39.030 39.030 10 5.4 m/h 0 %
20:00:00 clear sky 33.340 33.340 33.340 15 2.91 m/h 0 %
23:00:00 scattered clouds 31.570 31.570 31.570 17 2.99 m/h 0 %
11-Apr-2020 (Sat)
02:00:00 broken clouds 29.300 29.300 29.300 23 4.05 m/h 0 %
05:00:00 overcast clouds 27.470 27.470 27.470 30 4.19 m/h 0 %
08:00:00 clear sky 30.450 30.450 30.450 25 5.73 m/h 0 %
11:00:00 clear sky 36.860 36.860 36.860 16 4.82 m/h 0 %
14:00:00 clear sky 39.650 39.650 39.650 12 1.13 m/h 0 %
17:00:00 few clouds 39.780 39.780 39.780 11 0.51 m/h 0 %
20:00:00 broken clouds 35.240 35.240 35.240 14 2.37 m/h 0 %
23:00:00 broken clouds 33.320 33.320 33.320 16 1.59 m/h 0 %
12-Apr-2020 (Sun)
02:00:00 overcast clouds 31.540 31.540 31.540 18 0.95 m/h 0 %
05:00:00 overcast clouds 30.030 30.030 30.030 19 1 m/h 0 %
08:00:00 broken clouds 34.000 34.000 34.000 15 0.24 m/h 0 %
11:00:00 scattered clouds 40.490 40.490 40.490 10 3.58 m/h 0 %
14:00:00 clear sky 43.140 43.140 43.140 8 3.36 m/h 0 %
17:00:00 scattered clouds 42.710 42.710 42.710 7 3.27 m/h 0 %
20:00:00 overcast clouds 37.050 37.050 37.050 10 2.41 m/h 0 %
23:00:00 broken clouds 34.550 34.550 34.550 11 2.94 m/h 0 %
13-Apr-2020 (Mon)
02:00:00 scattered clouds 32.540 32.540 32.540 12 3.44 m/h 0 %
05:00:00 scattered clouds 30.290 30.290 30.290 14 4.11 m/h 0 %
08:00:00 clear sky 33.870 33.870 33.870 12 4.3 m/h 0 %
11:00:00 clear sky 40.120 40.120 40.120 8 3.13 m/h 0 %
14:00:00 clear sky 42.910 42.910 42.910 6 3.36 m/h 0 %
17:00:00 clear sky 42.880 42.880 42.880 6 2.55 m/h 0 %
20:00:00 clear sky 35.810 35.810 35.810 8 3.71 m/h 0 %
23:00:00 clear sky 32.390 32.390 32.390 11 5.08 m/h 0 %
14-Apr-2020 (Tue)
02:00:00 broken clouds 30.270 30.270 30.270 14 2.77 m/h 0 %

Famous Cities (61)